Time;durP1;ratioP1;P1;durP2;ratioP2;P2;SDS_P1;SDS_P2;PMS_P1;PMS_P2;Temp;Humidity;BMP_temperature;BMP_pressure;BME280_temperature;BME280_humidity;BME280_pressure;Samples;Min_cycle;Max_cycle;Signal;HPM_P1;HPM_P2
2022/12/16 00:00:16;;;;;;;42.13;26.60;;;1.00;99.90;;;;;;5055228;28;20301;-87
2022/12/16 00:02:45;;;;;;;36.13;24.20;;;1.00;99.90;;;;;;5055564;28;20198;-87
2022/12/16 00:05:14;;;;;;;28.20;22.63;;;1.00;99.90;;;;;;5055216;28;20252;-87
2022/12/16 00:07:42;;;;;;;33.77;24.67;;;1.00;99.90;;;;;;5055209;28;20210;-86
2022/12/16 00:10:10;;;;;;;30.67;23.63;;;1.00;99.90;;;;;;5055010;28;20212;-87
2022/12/16 00:12:39;;;;;;;38.50;23.37;;;1.00;99.90;;;;;;5054963;28;20297;-87
2022/12/16 00:15:08;;;;;;;36.13;25.60;;;1.00;99.90;;;;;;5055312;28;20231;-87
2022/12/16 00:17:36;;;;;;;41.67;26.30;;;1.00;99.90;;;;;;5055578;28;20289;-86
2022/12/16 00:20:07;;;;;;;35.20;24.03;;;1.00;99.90;;;;;;5055625;28;20213;-86
2022/12/16 00:22:35;;;;;;;31.17;24.80;;;1.00;99.90;;;;;;5055365;28;20217;-86
2022/12/16 00:25:04;;;;;;;31.23;22.90;;;1.00;99.90;;;;;;5055099;28;20230;-86
2022/12/16 00:27:33;;;;;;;33.80;24.43;;;1.00;99.90;;;;;;5054924;28;20213;-86
2022/12/16 00:30:01;;;;;;;32.00;23.63;;;1.00;99.90;;;;;;5054885;28;20212;-86
2022/12/16 00:32:29;;;;;;;33.43;23.13;;;0.90;99.90;;;;;;5071705;28;20304;-86
2022/12/16 00:34:58;;;;;;;24.10;19.53;;;1.00;99.90;;;;;;5075147;28;20308;-86
2022/12/16 00:37:27;;;;;;;41.47;23.30;;;1.00;99.90;;;;;;5075009;28;20201;-87
2022/12/16 00:39:56;;;;;;;24.93;19.60;;;1.00;99.90;;;;;;5074989;28;20252;-86
2022/12/16 00:42:24;;;;;;;25.67;19.90;;;1.00;99.90;;;;;;5073684;28;20197;-86
2022/12/16 00:44:52;;;;;;;24.83;19.30;;;1.10;99.90;;;;;;5075136;28;20232;-86
2022/12/16 00:47:21;;;;;;;23.40;16.95;;;1.00;99.90;;;;;;5056757;28;20221;-86
2022/12/16 00:49:50;;;;;;;21.13;17.40;;;1.10;99.90;;;;;;5054703;28;20206;-86
2022/12/16 00:52:18;;;;;;;19.45;16.35;;;1.00;99.90;;;;;;5054177;28;20214;-86
2022/12/16 00:54:47;;;;;;;22.85;16.98;;;1.10;99.90;;;;;;5054595;28;20316;-86
2022/12/16 00:57:16;;;;;;;25.83;19.37;;;1.00;99.90;;;;;;5054635;28;20209;-86
2022/12/16 00:59:44;;;;;;;22.50;16.23;;;1.00;99.90;;;;;;5054532;28;20206;-86
2022/12/16 01:02:12;;;;;;;17.83;14.90;;;1.10;99.90;;;;;;5054493;28;20214;-86
2022/12/16 01:04:41;;;;;;;21.20;15.73;;;1.10;99.90;;;;;;5054485;28;20226;-86
2022/12/16 01:07:09;;;;;;;21.80;16.13;;;1.10;99.90;;;;;;5054014;28;20202;-86
2022/12/16 01:09:38;;;;;;;33.53;16.70;;;1.10;99.90;;;;;;5054733;28;20205;-86
2022/12/16 01:12:08;;;;;;;17.80;14.48;;;1.10;99.90;;;;;;5054284;28;20228;-86
2022/12/16 01:14:37;;;;;;;16.70;14.23;;;1.10;99.90;;;;;;5054244;28;20237;-84
2022/12/16 01:17:05;;;;;;;21.50;16.97;;;1.10;99.90;;;;;;5054183;28;20221;-84
2022/12/16 01:19:33;;;;;;;19.90;16.13;;;1.20;99.90;;;;;;5054279;28;20294;-84
2022/12/16 01:22:02;;;;;;;22.23;16.73;;;1.10;99.90;;;;;;5067778;28;20205;-86
2022/12/16 01:24:30;;;;;;;23.97;15.97;;;1.20;99.90;;;;;;5074263;28;20225;-86
2022/12/16 01:26:58;;;;;;;20.60;16.13;;;1.20;99.90;;;;;;5073665;28;20211;-86
2022/12/16 01:29:28;;;;;;;21.58;16.17;;;1.20;99.90;;;;;;5073951;28;20205;-86
2022/12/16 01:31:56;;;;;;;20.93;14.77;;;1.20;99.90;;;;;;5054134;28;20218;-86
2022/12/16 01:34:25;;;;;;;15.73;14.07;;;1.20;99.90;;;;;;5054078;28;20275;-86
2022/12/16 01:36:53;;;;;;;15.13;12.30;;;1.30;99.90;;;;;;5054081;28;20225;-86
2022/12/16 01:39:23;;;;;;;15.00;13.23;;;1.20;99.90;;;;;;5053424;28;20244;-86
2022/12/16 01:41:52;;;;;;;16.03;13.47;;;1.20;99.90;;;;;;5053361;28;20201;-86
2022/12/16 01:44:22;;;;;;;11.40;10.23;;;1.20;99.90;;;;;;5054389;28;20225;-86
2022/12/16 01:46:55;;;;;;;11.23;9.97;;;1.20;99.90;;;;;;5073322;28;20216;-86
2022/12/16 01:49:27;;;;;;;15.87;10.93;;;1.20;99.90;;;;;;5073822;28;20201;-86
2022/12/16 01:51:59;;;;;;;11.00;9.98;;;1.20;99.90;;;;;;5070857;28;20213;-86
2022/12/16 01:54:34;;;;;;;10.55;9.55;;;1.20;99.90;;;;;;5073325;28;20236;-86
2022/12/16 01:57:04;;;;;;;10.27;8.60;;;1.20;99.90;;;;;;5073193;28;20243;-86
2022/12/16 01:59:35;;;;;;;9.87;8.97;;;1.30;99.90;;;;;;5073388;28;20228;-86
2022/12/16 02:02:05;;;;;;;11.27;9.50;;;1.20;99.90;;;;;;5073591;28;20216;-86
2022/12/16 02:04:34;;;;;;;9.93;8.97;;;1.20;99.90;;;;;;5073427;28;20229;-86
2022/12/16 02:07:02;;;;;;;10.20;9.18;;;1.30;99.90;;;;;;5053301;28;20221;-86
2022/12/16 02:09:30;;;;;;;10.40;9.45;;;1.30;99.90;;;;;;5053175;28;20210;-86
2022/12/16 02:12:14;;;;;;;9.63;8.80;;;1.30;99.90;;;;;;5053257;28;20224;-86
2022/12/16 02:15:08;;;;;;;8.53;7.73;;;1.30;99.90;;;;;;5053414;28;20236;-86
2022/12/16 02:17:48;;;;;;;8.88;7.97;;;1.30;99.90;;;;;;5053533;28;20205;-86
2022/12/16 02:20:55;;;;;;;8.88;8.00;;;1.30;99.90;;;;;;5053330;28;20209;-86
2022/12/16 02:23:43;;;;;;;8.50;7.60;;;1.30;99.90;;;;;;5053006;28;20202;-86
2022/12/16 02:26:49;;;;;;;14.85;9.23;;;1.30;99.90;;;;;;5053435;28;20197;-86
2022/12/16 02:29:49;;;;;;;7.30;6.70;;;1.40;99.90;;;;;;5058167;28;20209;-86
2022/12/16 02:32:23;;;;;;;8.20;7.17;;;1.40;99.90;;;;;;5073306;28;20228;-86
2022/12/16 02:34:59;;;;;;;8.00;7.17;;;1.40;99.90;;;;;;5060015;28;20224;-86
2022/12/16 02:37:38;;;;;;;7.90;7.20;;;1.30;99.90;;;;;;5053144;28;20205;-86
2022/12/16 02:40:14;;;;;;;7.32;6.40;;;1.30;99.90;;;;;;5053011;28;20213;-86
2022/12/16 02:42:47;;;;;;;7.80;7.00;;;1.30;99.90;;;;;;5053177;28;20198;-86
2022/12/16 02:45:18;;;;;;;7.73;7.00;;;1.30;99.90;;;;;;5053319;28;20225;-86
2022/12/16 02:47:48;;;;;;;7.85;7.15;;;1.30;99.90;;;;;;5053068;28;20208;-86
2022/12/16 02:50:20;;;;;;;6.67;6.13;;;1.30;99.90;;;;;;5071468;28;20209;-84
2022/12/16 02:52:50;;;;;;;7.20;6.60;;;1.30;99.90;;;;;;5076069;28;20227;-84
2022/12/16 02:55:19;;;;;;;7.20;6.50;;;1.30;99.90;;;;;;5077146;28;20229;-84
2022/12/16 02:58:00;;;;;;;6.93;6.40;;;1.30;99.90;;;;;;5076644;28;20204;-84
2022/12/16 03:00:38;;;;;;;7.22;6.57;;;1.30;99.90;;;;;;5057600;28;20209;-84
2022/12/16 03:03:13;;;;;;;7.10;6.40;;;1.30;99.90;;;;;;5056962;28;20209;-84
2022/12/16 03:05:47;;;;;;;7.87;7.07;;;1.30;99.90;;;;;;5056610;28;20215;-86
2022/12/16 03:08:21;;;;;;;7.10;6.40;;;1.40;99.90;;;;;;5056865;28;20206;-86
2022/12/16 03:10:55;;;;;;;6.63;6.00;;;1.30;99.90;;;;;;5056564;28;20209;-86
2022/12/16 03:13:25;;;;;;;6.23;5.70;;;1.40;99.90;;;;;;5056085;28;20225;-86
2022/12/16 03:15:56;;;;;;;6.28;5.68;;;1.40;99.90;;;;;;5056567;28;20208;-86
2022/12/16 03:18:27;;;;;;;9.37;5.77;;;1.40;99.90;;;;;;5056268;28;20218;-86
2022/12/16 03:21:00;;;;;;;5.93;5.40;;;1.40;99.90;;;;;;5056215;28;20209;-86
2022/12/16 03:23:33;;;;;;;6.47;5.83;;;1.40;99.90;;;;;;5071156;28;20197;-86
2022/12/16 03:26:06;;;;;;;6.85;5.25;;;1.40;99.90;;;;;;5076528;28;20205;-86
2022/12/16 03:28:44;;;;;;;5.37;4.97;;;1.40;99.90;;;;;;5076480;28;20201;-86
2022/12/16 03:31:25;;;;;;;6.53;5.83;;;1.40;99.90;;;;;;5076386;28;20208;-86
2022/12/16 03:34:00;;;;;;;6.65;6.05;;;1.40;99.90;;;;;;5075679;28;20225;-86
2022/12/16 03:36:33;;;;;;;6.45;5.88;;;1.40;99.90;;;;;;5076284;28;20200;-86
2022/12/16 03:39:02;;;;;;;6.53;5.93;;;1.40;99.90;;;;;;5076331;28;20197;-86
2022/12/16 03:41:32;;;;;;;5.93;5.43;;;1.40;99.90;;;;;;5071366;28;20202;-86
2022/12/16 03:44:01;;;;;;;6.05;5.47;;;1.50;99.90;;;;;;5056371;28;20228;-86
2022/12/16 03:46:29;;;;;;;5.10;4.70;;;1.40;99.90;;;;;;5055716;28;20296;-86
2022/12/16 03:49:00;;;;;;;6.18;5.68;;;1.40;99.90;;;;;;5055974;28;20224;-86
2022/12/16 03:51:28;;;;;;;5.40;4.97;;;1.50;99.90;;;;;;5055963;28;20232;-86
2022/12/16 03:53:56;;;;;;;4.80;4.40;;;1.50;99.90;;;;;;5055562;28;20225;-86
2022/12/16 03:56:24;;;;;;;5.67;5.17;;;1.50;99.90;;;;;;5055515;28;20206;-85
2022/12/16 03:58:53;;;;;;;5.20;4.80;;;1.50;99.90;;;;;;5055731;28;20221;-86
2022/12/16 04:01:22;;;;;;;6.25;5.65;;;1.50;99.90;;;;;;5064894;28;20209;-86
2022/12/16 04:03:50;;;;;;;5.90;4.78;;;1.50;99.90;;;;;;5074927;28;20221;-86
2022/12/16 04:06:20;;;;;;;6.30;5.80;;;1.50;99.90;;;;;;5062856;28;20289;-85
2022/12/16 04:08:48;;;;;;;6.30;5.80;;;1.50;99.90;;;;;;5055361;28;20213;-86
2022/12/16 04:25:16;;;;;;;4.95;4.55;;;1.60;99.90;;;;;;5075100;28;20229;-86
2022/12/16 04:27:45;;;;;;;6.55;5.18;;;1.60;99.90;;;;;;5074967;28;20204;-86
2022/12/16 04:30:20;;;;;;;8.00;5.03;;;1.60;99.90;;;;;;5074931;28;20205;-86
